sensor_id;sensor_type;location;lat;lon;timestamp;P1;durP1;ratioP1;P2;durP2;ratioP2
77326;SDS011;66399;52.322;20.980;2023-06-10T00:02:47;5.50;;;4.30;;
77326;SDS011;66399;52.322;20.980;2023-06-10T00:06:54;8.50;;;4.40;;
77326;SDS011;66399;52.322;20.980;2023-06-10T00:11:01;9.30;;;4.70;;
77326;SDS011;66399;52.322;20.980;2023-06-10T00:15:09;7.10;;;4.50;;
77326;SDS011;66399;52.322;20.980;2023-06-10T00:19:16;7.40;;;4.50;;
77326;SDS011;66399;52.322;20.980;2023-06-10T00:23:23;7.00;;;4.40;;
77326;SDS011;66399;52.322;20.980;2023-06-10T00:27:33;5.80;;;4.40;;
77326;SDS011;66399;52.322;20.980;2023-06-10T00:31:41;6.80;;;4.70;;
77326;SDS011;66399;52.322;20.980;2023-06-10T00:35:49;7.90;;;4.20;;
77326;SDS011;66399;52.322;20.980;2023-06-10T00:39:56;5.90;;;4.20;;
77326;SDS011;66399;52.322;20.980;2023-06-10T00:44:04;9.10;;;4.90;;
77326;SDS011;66399;52.322;20.980;2023-06-10T00:48:10;7.40;;;4.20;;
77326;SDS011;66399;52.322;20.980;2023-06-10T00:52:18;9.00;;;4.20;;
77326;SDS011;66399;52.322;20.980;2023-06-10T00:56:27;7.20;;;4.40;;
77326;SDS011;66399;52.322;20.980;2023-06-10T01:00:34;6.30;;;4.00;;
77326;SDS011;66399;52.322;20.980;2023-06-10T01:04:41;9.00;;;4.20;;
77326;SDS011;66399;52.322;20.980;2023-06-10T01:08:49;7.40;;;3.70;;
77326;SDS011;66399;52.322;20.980;2023-06-10T01:13:03;8.10;;;4.10;;
77326;SDS011;66399;52.322;20.980;2023-06-10T01:17:12;7.00;;;4.30;;
77326;SDS011;66399;52.322;20.980;2023-06-10T01:21:22;6.10;;;3.50;;
77326;SDS011;66399;52.322;20.980;2023-06-10T01:25:30;6.60;;;3.30;;
77326;SDS011;66399;52.322;20.980;2023-06-10T01:29:41;6.90;;;3.40;;
77326;SDS011;66399;52.322;20.980;2023-06-10T01:33:51;9.20;;;3.90;;
77326;SDS011;66399;52.322;20.980;2023-06-10T01:37:59;6.50;;;3.60;;
77326;SDS011;66399;52.322;20.980;2023-06-10T01:42:08;8.60;;;3.80;;
77326;SDS011;66399;52.322;20.980;2023-06-10T01:46:16;7.50;;;3.40;;
77326;SDS011;66399;52.322;20.980;2023-06-10T01:50:25;6.60;;;3.40;;
77326;SDS011;66399;52.322;20.980;2023-06-10T01:54:32;7.60;;;3.80;;
77326;SDS011;66399;52.322;20.980;2023-06-10T01:58:39;6.60;;;4.10;;
77326;SDS011;66399;52.322;20.980;2023-06-10T02:02:46;5.50;;;3.40;;
77326;SDS011;66399;52.322;20.980;2023-06-10T02:06:53;5.70;;;3.00;;
77326;SDS011;66399;52.322;20.980;2023-06-10T02:11:00;5.50;;;2.90;;
77326;SDS011;66399;52.322;20.980;2023-06-10T02:15:07;3.10;;;2.10;;
77326;SDS011;66399;52.322;20.980;2023-06-10T02:19:14;7.20;;;3.30;;
77326;SDS011;66399;52.322;20.980;2023-06-10T02:23:24;7.30;;;3.70;;
77326;SDS011;66399;52.322;20.980;2023-06-10T02:27:31;6.90;;;3.40;;
77326;SDS011;66399;52.322;20.980;2023-06-10T02:31:38;6.60;;;3.20;;
77326;SDS011;66399;52.322;20.980;2023-06-10T02:35:45;7.10;;;3.40;;
77326;SDS011;66399;52.322;20.980;2023-06-10T02:39:52;7.30;;;3.20;;
77326;SDS011;66399;52.322;20.980;2023-06-10T02:43:59;6.60;;;3.80;;
77326;SDS011;66399;52.322;20.980;2023-06-10T02:48:06;6.20;;;3.50;;
77326;SDS011;66399;52.322;20.980;2023-06-10T02:52:13;6.20;;;3.40;;
77326;SDS011;66399;52.322;20.980;2023-06-10T02:56:20;5.00;;;3.30;;
77326;SDS011;66399;52.322;20.980;2023-06-10T03:00:27;6.50;;;3.40;;
77326;SDS011;66399;52.322;20.980;2023-06-10T03:04:34;7.60;;;4.30;;
77326;SDS011;66399;52.322;20.980;2023-06-10T03:08:41;6.20;;;3.30;;
77326;SDS011;66399;52.322;20.980;2023-06-10T03:12:49;6.10;;;3.10;;
77326;SDS011;66399;52.322;20.980;2023-06-10T03:16:56;5.40;;;3.00;;
77326;SDS011;66399;52.322;20.980;2023-06-10T03:21:03;6.30;;;3.20;;
77326;SDS011;66399;52.322;20.980;2023-06-10T03:25:10;7.60;;;3.30;;
77326;SDS011;66399;52.322;20.980;2023-06-10T03:29:18;6.00;;;3.00;;
77326;SDS011;66399;52.322;20.980;2023-06-10T03:33:25;6.90;;;3.20;;
77326;SDS011;66399;52.322;20.980;2023-06-10T03:37:32;6.00;;;3.10;;
77326;SDS011;66399;52.322;20.980;2023-06-10T03:41:39;4.80;;;3.00;;
77326;SDS011;66399;52.322;20.980;2023-06-10T03:45:46;10.00;;;3.30;;
77326;SDS011;66399;52.322;20.980;2023-06-10T03:49:53;5.80;;;3.40;;
77326;SDS011;66399;52.322;20.980;2023-06-10T03:54:00;5.40;;;3.10;;
77326;SDS011;66399;52.322;20.980;2023-06-10T03:58:07;5.80;;;3.30;;
77326;SDS011;66399;52.322;20.980;2023-06-10T04:02:17;5.80;;;3.20;;
77326;SDS011;66399;52.322;20.980;2023-06-10T04:06:24;9.90;;;4.00;;
77326;SDS011;66399;52.322;20.980;2023-06-10T04:10:32;5.50;;;3.00;;
77326;SDS011;66399;52.322;20.980;2023-06-10T04:14:39;6.70;;;3.40;;
77326;SDS011;66399;52.322;20.980;2023-06-10T04:18:46;11.80;;;3.40;;
77326;SDS011;66399;52.322;20.980;2023-06-10T04:22:53;8.10;;;3.70;;
77326;SDS011;66399;52.322;20.980;2023-06-10T04:27:00;6.20;;;3.10;;
77326;SDS011;66399;52.322;20.980;2023-06-10T04:31:08;5.50;;;3.30;;
77326;SDS011;66399;52.322;20.980;2023-06-10T04:35:15;5.40;;;3.20;;
77326;SDS011;66399;52.322;20.980;2023-06-10T04:39:22;5.80;;;3.30;;
77326;SDS011;66399;52.322;20.980;2023-06-10T04:43:28;9.70;;;3.60;;
77326;SDS011;66399;52.322;20.980;2023-06-10T04:47:36;8.60;;;3.40;;
77326;SDS011;66399;52.322;20.980;2023-06-10T04:51:43;7.10;;;3.10;;
77326;SDS011;66399;52.322;20.980;2023-06-10T04:55:50;7.00;;;3.10;;
77326;SDS011;66399;52.322;20.980;2023-06-10T04:59:56;6.90;;;3.70;;
77326;SDS011;66399;52.322;20.980;2023-06-10T05:04:04;6.10;;;3.50;;
77326;SDS011;66399;52.322;20.980;2023-06-10T05:08:11;7.90;;;3.50;;
77326;SDS011;66399;52.322;20.980;2023-06-10T05:12:18;6.40;;;3.10;;
77326;SDS011;66399;52.322;20.980;2023-06-10T05:16:24;6.10;;;3.20;;
77326;SDS011;66399;52.322;20.980;2023-06-10T05:20:31;7.40;;;3.30;;
77326;SDS011;66399;52.322;20.980;2023-06-10T05:24:38;5.90;;;2.90;;
77326;SDS011;66399;52.322;20.980;2023-06-10T05:28:45;10.50;;;3.20;;
77326;SDS011;66399;52.322;20.980;2023-06-10T05:32:52;6.00;;;3.20;;
77326;SDS011;66399;52.322;20.980;2023-06-10T05:37:00;6.50;;;3.20;;
77326;SDS011;66399;52.322;20.980;2023-06-10T05:41:07;6.40;;;3.20;;
77326;SDS011;66399;52.322;20.980;2023-06-10T05:45:14;6.40;;;3.40;;
77326;SDS011;66399;52.322;20.980;2023-06-10T05:49:21;6.80;;;3.20;;
77326;SDS011;66399;52.322;20.980;2023-06-10T05:53:28;6.10;;;3.50;;
77326;SDS011;66399;52.322;20.980;2023-06-10T05:57:35;5.90;;;3.40;;
77326;SDS011;66399;52.322;20.980;2023-06-10T06:01:42;7.20;;;3.40;;
77326;SDS011;66399;52.322;20.980;2023-06-10T06:05:48;8.30;;;4.00;;
77326;SDS011;66399;52.322;20.980;2023-06-10T06:09:55;6.40;;;2.90;;
77326;SDS011;66399;52.322;20.980;2023-06-10T06:14:02;5.50;;;3.20;;
77326;SDS011;66399;52.322;20.980;2023-06-10T06:18:09;6.70;;;3.10;;
77326;SDS011;66399;52.322;20.980;2023-06-10T06:22:16;5.80;;;3.40;;
77326;SDS011;66399;52.322;20.980;2023-06-10T06:26:25;5.40;;;3.60;;
77326;SDS011;66399;52.322;20.980;2023-06-10T06:30:32;6.80;;;3.50;;
77326;SDS011;66399;52.322;20.980;2023-06-10T06:34:38;7.70;;;3.50;;
77326;SDS011;66399;52.322;20.980;2023-06-10T06:38:45;6.20;;;3.80;;
77326;SDS011;66399;52.322;20.980;2023-06-10T06:42:52;10.60;;;3.30;;
77326;SDS011;66399;52.322;20.980;2023-06-10T06:46:59;7.20;;;3.60;;
77326;SDS011;66399;52.322;20.980;2023-06-10T06:51:06;7.10;;;3.90;;
77326;SDS011;66399;52.322;20.980;2023-06-10T06:55:13;5.80;;;3.50;;
77326;SDS011;66399;52.322;20.980;2023-06-10T06:59:20;7.70;;;3.70;;
77326;SDS011;66399;52.322;20.980;2023-06-10T07:03:27;6.00;;;3.80;;
77326;SDS011;66399;52.322;20.980;2023-06-10T07:07:34;6.40;;;3.70;;
77326;SDS011;66399;52.322;20.980;2023-06-10T07:11:41;6.70;;;3.90;;
77326;SDS011;66399;52.322;20.980;2023-06-10T07:15:48;6.70;;;3.60;;
77326;SDS011;66399;52.322;20.980;2023-06-10T07:19:55;6.30;;;4.10;;
77326;SDS011;66399;52.322;20.980;2023-06-10T07:24:04;7.40;;;3.80;;
77326;SDS011;66399;52.322;20.980;2023-06-10T07:28:11;5.90;;;3.80;;
77326;SDS011;66399;52.322;20.980;2023-06-10T07:32:18;5.60;;;3.50;;
77326;SDS011;66399;52.322;20.980;2023-06-10T07:36:27;4.80;;;3.50;;
77326;SDS011;66399;52.322;20.980;2023-06-10T07:40:34;7.40;;;3.90;;
77326;SDS011;66399;52.322;20.980;2023-06-10T07:44:41;6.70;;;4.30;;
77326;SDS011;66399;52.322;20.980;2023-06-10T07:48:48;6.60;;;4.10;;
77326;SDS011;66399;52.322;20.980;2023-06-10T07:52:55;7.20;;;3.80;;
77326;SDS011;66399;52.322;20.980;2023-06-10T07:57:02;9.30;;;3.90;;
77326;SDS011;66399;52.322;20.980;2023-06-10T08:01:10;7.10;;;3.90;;
77326;SDS011;66399;52.322;20.980;2023-06-10T08:05:17;10.20;;;4.10;;
77326;SDS011;66399;52.322;20.980;2023-06-10T08:09:25;6.00;;;3.60;;
77326;SDS011;66399;52.322;20.980;2023-06-10T08:13:32;5.90;;;4.00;;
77326;SDS011;66399;52.322;20.980;2023-06-10T08:17:39;6.90;;;3.90;;
77326;SDS011;66399;52.322;20.980;2023-06-10T08:21:46;8.70;;;4.00;;
77326;SDS011;66399;52.322;20.980;2023-06-10T08:25:53;6.00;;;3.70;;
77326;SDS011;66399;52.322;20.980;2023-06-10T08:30:00;6.00;;;3.80;;
77326;SDS011;66399;52.322;20.980;2023-06-10T08:34:07;6.30;;;4.20;;
77326;SDS011;66399;52.322;20.980;2023-06-10T08:38:15;7.80;;;4.40;;
77326;SDS011;66399;52.322;20.980;2023-06-10T08:42:23;7.50;;;4.40;;
77326;SDS011;66399;52.322;20.980;2023-06-10T08:46:33;5.50;;;3.80;;
77326;SDS011;66399;52.322;20.980;2023-06-10T08:50:41;7.20;;;4.00;;
77326;SDS011;66399;52.322;20.980;2023-06-10T08:54:49;6.50;;;3.90;;
77326;SDS011;66399;52.322;20.980;2023-06-10T08:59:01;6.80;;;3.90;;
77326;SDS011;66399;52.322;20.980;2023-06-10T09:03:08;4.60;;;3.20;;
77326;SDS011;66399;52.322;20.980;2023-06-10T09:07:16;6.10;;;3.80;;
77326;SDS011;66399;52.322;20.980;2023-06-10T09:11:23;7.30;;;3.90;;
77326;SDS011;66399;52.322;20.980;2023-06-10T09:15:31;6.50;;;2.90;;
77326;SDS011;66399;52.322;20.980;2023-06-10T09:19:38;5.50;;;3.10;;
77326;SDS011;66399;52.322;20.980;2023-06-10T09:23:47;5.20;;;3.30;;
77326;SDS011;66399;52.322;20.980;2023-06-10T09:27:54;10.80;;;3.70;;
77326;SDS011;66399;52.322;20.980;2023-06-10T09:32:02;6.70;;;3.30;;
77326;SDS011;66399;52.322;20.980;2023-06-10T09:36:20;5.70;;;3.60;;
77326;SDS011;66399;52.322;20.980;2023-06-10T09:40:28;5.90;;;3.10;;
77326;SDS011;66399;52.322;20.980;2023-06-10T09:44:35;5.70;;;3.60;;
77326;SDS011;66399;52.322;20.980;2023-06-10T09:48:44;4.70;;;3.20;;
77326;SDS011;66399;52.322;20.980;2023-06-10T09:52:52;6.30;;;3.10;;
77326;SDS011;66399;52.322;20.980;2023-06-10T09:56:59;5.00;;;3.00;;
77326;SDS011;66399;52.322;20.980;2023-06-10T10:01:13;7.80;;;3.30;;
77326;SDS011;66399;52.322;20.980;2023-06-10T10:05:20;5.60;;;3.60;;
77326;SDS011;66399;52.322;20.980;2023-06-10T10:09:28;6.60;;;3.30;;
77326;SDS011;66399;52.322;20.980;2023-06-10T10:13:35;5.20;;;2.90;;
77326;SDS011;66399;52.322;20.980;2023-06-10T10:17:44;6.50;;;3.80;;
77326;SDS011;66399;52.322;20.980;2023-06-10T10:21:56;6.10;;;4.10;;
77326;SDS011;66399;52.322;20.980;2023-06-10T10:26:12;5.90;;;2.80;;
77326;SDS011;66399;52.322;20.980;2023-06-10T10:30:21;6.40;;;3.70;;
77326;SDS011;66399;52.322;20.980;2023-06-10T10:34:35;6.80;;;3.50;;
77326;SDS011;66399;52.322;20.980;2023-06-10T10:38:48;7.20;;;3.10;;
77326;SDS011;66399;52.322;20.980;2023-06-10T10:42:56;4.80;;;3.20;;
77326;SDS011;66399;52.322;20.980;2023-06-10T10:47:04;4.80;;;3.20;;
77326;SDS011;66399;52.322;20.980;2023-06-10T10:51:15;7.10;;;3.50;;
77326;SDS011;66399;52.322;20.980;2023-06-10T10:55:22;5.40;;;3.60;;
77326;SDS011;66399;52.322;20.980;2023-06-10T11:03:51;4.10;;;2.80;;
77326;SDS011;66399;52.322;20.980;2023-06-10T11:08:01;5.40;;;3.20;;
77326;SDS011;66399;52.322;20.980;2023-06-10T11:12:09;6.50;;;3.40;;
77326;SDS011;66399;52.322;20.980;2023-06-10T11:16:17;6.30;;;3.40;;
77326;SDS011;66399;52.322;20.980;2023-06-10T11:25:06;5.40;;;3.30;;
77326;SDS011;66399;52.322;20.980;2023-06-10T11:29:20;6.30;;;3.30;;
77326;SDS011;66399;52.322;20.980;2023-06-10T11:33:27;7.40;;;3.70;;
77326;SDS011;66399;52.322;20.980;2023-06-10T11:37:34;6.30;;;4.10;;
77326;SDS011;66399;52.322;20.980;2023-06-10T11:41:41;5.20;;;4.10;;
77326;SDS011;66399;52.322;20.980;2023-06-10T11:45:53;5.10;;;3.60;;
77326;SDS011;66399;52.322;20.980;2023-06-10T11:50:00;5.60;;;3.50;;
77326;SDS011;66399;52.322;20.980;2023-06-10T11:54:09;5.20;;;3.20;;
77326;SDS011;66399;52.322;20.980;2023-06-10T11:58:16;5.40;;;4.20;;
77326;SDS011;66399;52.322;20.980;2023-06-10T12:02:23;6.10;;;3.60;;
77326;SDS011;66399;52.322;20.980;2023-06-10T12:06:41;7.00;;;4.30;;
77326;SDS011;66399;52.322;20.980;2023-06-10T12:10:50;5.60;;;4.00;;
77326;SDS011;66399;52.322;20.980;2023-06-10T12:14:58;5.70;;;3.20;;
77326;SDS011;66399;52.322;20.980;2023-06-10T12:19:07;6.40;;;3.80;;
77326;SDS011;66399;52.322;20.980;2023-06-10T12:23:14;6.10;;;3.70;;
77326;SDS011;66399;52.322;20.980;2023-06-10T12:27:22;7.70;;;3.60;;
77326;SDS011;66399;52.322;20.980;2023-06-10T12:31:29;4.20;;;3.10;;
77326;SDS011;66399;52.322;20.980;2023-06-10T12:35:36;7.80;;;4.20;;
77326;SDS011;66399;52.322;20.980;2023-06-10T12:39:54;5.00;;;4.10;;
77326;SDS011;66399;52.322;20.980;2023-06-10T12:44:02;8.80;;;4.60;;
77326;SDS011;66399;52.322;20.980;2023-06-10T12:48:10;6.00;;;3.70;;
77326;SDS011;66399;52.322;20.980;2023-06-10T12:52:23;11.10;;;6.70;;
77326;SDS011;66399;52.322;20.980;2023-06-10T12:56:30;6.00;;;4.10;;
77326;SDS011;66399;52.322;20.980;2023-06-10T13:00:37;6.20;;;4.20;;
77326;SDS011;66399;52.322;20.980;2023-06-10T13:04:45;6.50;;;4.50;;
77326;SDS011;66399;52.322;20.980;2023-06-10T13:08:52;6.40;;;5.30;;
77326;SDS011;66399;52.322;20.980;2023-06-10T13:12:59;6.30;;;5.20;;
77326;SDS011;66399;52.322;20.980;2023-06-10T13:17:06;8.60;;;7.90;;
77326;SDS011;66399;52.322;20.980;2023-06-10T13:21:13;9.10;;;8.40;;
77326;SDS011;66399;52.322;20.980;2023-06-10T13:25:20;9.00;;;8.30;;
77326;SDS011;66399;52.322;20.980;2023-06-10T13:29:28;8.80;;;8.10;;
77326;SDS011;66399;52.322;20.980;2023-06-10T13:33:35;12.10;;;11.00;;
77326;SDS011;66399;52.322;20.980;2023-06-10T13:37:42;12.40;;;11.50;;
77326;SDS011;66399;52.322;20.980;2023-06-10T13:41:49;13.20;;;12.30;;
77326;SDS011;66399;52.322;20.980;2023-06-10T13:45:56;11.50;;;10.70;;
77326;SDS011;66399;52.322;20.980;2023-06-10T13:50:04;15.00;;;14.10;;
77326;SDS011;66399;52.322;20.980;2023-06-10T13:54:12;16.50;;;15.50;;
77326;SDS011;66399;52.322;20.980;2023-06-10T13:58:19;16.60;;;15.50;;
77326;SDS011;66399;52.322;20.980;2023-06-10T14:02:26;11.40;;;10.50;;
77326;SDS011;66399;52.322;20.980;2023-06-10T14:06:34;8.90;;;8.40;;
77326;SDS011;66399;52.322;20.980;2023-06-10T14:10:41;9.10;;;8.20;;
77326;SDS011;66399;52.322;20.980;2023-06-10T14:14:48;10.00;;;9.20;;
77326;SDS011;66399;52.322;20.980;2023-06-10T14:18:54;10.30;;;9.40;;
77326;SDS011;66399;52.322;20.980;2023-06-10T14:23:01;13.50;;;11.00;;
77326;SDS011;66399;52.322;20.980;2023-06-10T14:27:08;10.70;;;9.80;;
77326;SDS011;66399;52.322;20.980;2023-06-10T14:31:15;9.90;;;8.90;;
77326;SDS011;66399;52.322;20.980;2023-06-10T14:35:22;13.90;;;13.00;;
77326;SDS011;66399;52.322;20.980;2023-06-10T14:39:29;10.10;;;9.30;;
77326;SDS011;66399;52.322;20.980;2023-06-10T14:43:36;7.20;;;6.40;;
77326;SDS011;66399;52.322;20.980;2023-06-10T14:47:43;7.30;;;6.40;;
77326;SDS011;66399;52.322;20.980;2023-06-10T14:51:51;7.70;;;5.50;;
77326;SDS011;66399;52.322;20.980;2023-06-10T14:55:58;6.40;;;5.10;;
77326;SDS011;66399;52.322;20.980;2023-06-10T15:00:05;8.10;;;5.40;;
77326;SDS011;66399;52.322;20.980;2023-06-10T15:04:16;6.20;;;5.60;;
77326;SDS011;66399;52.322;20.980;2023-06-10T15:08:27;6.30;;;5.20;;
77326;SDS011;66399;52.322;20.980;2023-06-10T15:12:34;7.30;;;5.40;;
77326;SDS011;66399;52.322;20.980;2023-06-10T15:16:41;6.50;;;4.90;;
77326;SDS011;66399;52.322;20.980;2023-06-10T15:20:48;9.80;;;5.10;;
77326;SDS011;66399;52.322;20.980;2023-06-10T15:24:55;5.70;;;4.30;;
77326;SDS011;66399;52.322;20.980;2023-06-10T15:29:02;5.90;;;4.80;;
77326;SDS011;66399;52.322;20.980;2023-06-10T15:33:10;5.70;;;4.80;;
77326;SDS011;66399;52.322;20.980;2023-06-10T15:37:17;9.10;;;4.30;;
77326;SDS011;66399;52.322;20.980;2023-06-10T15:41:24;6.90;;;4.50;;
77326;SDS011;66399;52.322;20.980;2023-06-10T15:45:32;4.60;;;3.90;;
77326;SDS011;66399;52.322;20.980;2023-06-10T15:49:39;6.80;;;4.30;;
77326;SDS011;66399;52.322;20.980;2023-06-10T15:53:45;5.80;;;4.30;;
77326;SDS011;66399;52.322;20.980;2023-06-10T15:57:52;8.20;;;5.00;;
77326;SDS011;66399;52.322;20.980;2023-06-10T16:02:01;8.80;;;4.90;;
77326;SDS011;66399;52.322;20.980;2023-06-10T16:06:08;7.50;;;4.40;;
77326;SDS011;66399;52.322;20.980;2023-06-10T16:10:15;5.50;;;3.40;;
77326;SDS011;66399;52.322;20.980;2023-06-10T16:14:22;5.70;;;3.50;;
77326;SDS011;66399;52.322;20.980;2023-06-10T16:18:29;7.40;;;4.20;;
77326;SDS011;66399;52.322;20.980;2023-06-10T16:22:36;5.70;;;4.30;;
77326;SDS011;66399;52.322;20.980;2023-06-10T16:31:02;7.20;;;4.50;;
77326;SDS011;66399;52.322;20.980;2023-06-10T16:35:09;7.00;;;4.60;;
77326;SDS011;66399;52.322;20.980;2023-06-10T16:39:18;6.00;;;4.20;;
77326;SDS011;66399;52.322;20.980;2023-06-10T16:43:25;6.90;;;4.50;;
77326;SDS011;66399;52.322;20.980;2023-06-10T16:47:32;7.20;;;4.60;;
77326;SDS011;66399;52.322;20.980;2023-06-10T16:51:47;7.20;;;3.50;;
77326;SDS011;66399;52.322;20.980;2023-06-10T16:55:54;4.70;;;3.10;;
77326;SDS011;66399;52.322;20.980;2023-06-10T17:00:17;7.20;;;4.10;;
77326;SDS011;66399;52.322;20.980;2023-06-10T17:04:25;8.70;;;4.20;;
77326;SDS011;66399;52.322;20.980;2023-06-10T17:08:37;6.30;;;4.00;;
77326;SDS011;66399;52.322;20.980;2023-06-10T17:12:44;6.20;;;4.30;;
77326;SDS011;66399;52.322;20.980;2023-06-10T17:16:51;5.90;;;4.20;;
77326;SDS011;66399;52.322;20.980;2023-06-10T17:20:58;7.00;;;4.10;;
77326;SDS011;66399;52.322;20.980;2023-06-10T17:25:06;4.30;;;3.50;;
77326;SDS011;66399;52.322;20.980;2023-06-10T17:29:14;6.40;;;4.30;;
77326;SDS011;66399;52.322;20.980;2023-06-10T17:33:24;7.50;;;3.80;;
77326;SDS011;66399;52.322;20.980;2023-06-10T17:37:31;5.90;;;4.00;;
77326;SDS011;66399;52.322;20.980;2023-06-10T17:41:38;7.70;;;3.50;;
77326;SDS011;66399;52.322;20.980;2023-06-10T17:46:03;6.40;;;3.30;;
77326;SDS011;66399;52.322;20.980;2023-06-10T17:50:10;5.40;;;3.70;;
77326;SDS011;66399;52.322;20.980;2023-06-10T17:54:24;5.40;;;3.50;;
77326;SDS011;66399;52.322;20.980;2023-06-10T17:58:31;7.20;;;3.60;;
77326;SDS011;66399;52.322;20.980;2023-06-10T18:02:51;7.40;;;3.50;;
77326;SDS011;66399;52.322;20.980;2023-06-10T18:06:58;5.50;;;3.30;;
77326;SDS011;66399;52.322;20.980;2023-06-10T18:15:26;5.60;;;3.50;;
77326;SDS011;66399;52.322;20.980;2023-06-10T18:19:53;7.10;;;3.70;;
77326;SDS011;66399;52.322;20.980;2023-06-10T18:24:00;5.40;;;3.80;;
77326;SDS011;66399;52.322;20.980;2023-06-10T18:28:15;6.00;;;3.60;;
77326;SDS011;66399;52.322;20.980;2023-06-10T18:32:22;5.80;;;3.50;;
77326;SDS011;66399;52.322;20.980;2023-06-10T18:36:49;6.30;;;3.90;;
77326;SDS011;66399;52.322;20.980;2023-06-10T18:41:09;8.20;;;4.40;;
77326;SDS011;66399;52.322;20.980;2023-06-10T18:45:16;7.00;;;4.30;;
77326;SDS011;66399;52.322;20.980;2023-06-10T18:49:23;7.20;;;5.30;;
77326;SDS011;66399;52.322;20.980;2023-06-10T18:53:30;8.20;;;4.80;;
77326;SDS011;66399;52.322;20.980;2023-06-10T18:57:37;6.30;;;5.40;;
77326;SDS011;66399;52.322;20.980;2023-06-10T19:01:44;9.40;;;5.20;;
77326;SDS011;66399;52.322;20.980;2023-06-10T19:05:51;7.10;;;5.20;;
77326;SDS011;66399;52.322;20.980;2023-06-10T19:09:58;6.40;;;4.90;;
77326;SDS011;66399;52.322;20.980;2023-06-10T19:14:05;7.80;;;5.20;;
77326;SDS011;66399;52.322;20.980;2023-06-10T19:18:12;7.80;;;4.90;;
77326;SDS011;66399;52.322;20.980;2023-06-10T19:22:19;7.70;;;5.20;;
77326;SDS011;66399;52.322;20.980;2023-06-10T19:26:26;11.10;;;5.90;;
77326;SDS011;66399;52.322;20.980;2023-06-10T19:30:33;8.80;;;6.00;;
77326;SDS011;66399;52.322;20.980;2023-06-10T19:34:40;7.40;;;5.20;;
77326;SDS011;66399;52.322;20.980;2023-06-10T19:38:47;8.10;;;5.70;;
77326;SDS011;66399;52.322;20.980;2023-06-10T19:42:54;7.50;;;5.40;;
77326;SDS011;66399;52.322;20.980;2023-06-10T19:47:02;7.90;;;5.00;;
77326;SDS011;66399;52.322;20.980;2023-06-10T19:51:10;8.70;;;5.90;;
77326;SDS011;66399;52.322;20.980;2023-06-10T19:55:17;6.80;;;5.20;;
77326;SDS011;66399;52.322;20.980;2023-06-10T19:59:24;10.00;;;6.20;;
77326;SDS011;66399;52.322;20.980;2023-06-10T20:03:31;8.30;;;5.50;;
77326;SDS011;66399;52.322;20.980;2023-06-10T20:07:38;7.40;;;5.60;;
77326;SDS011;66399;52.322;20.980;2023-06-10T20:11:45;8.90;;;6.10;;
77326;SDS011;66399;52.322;20.980;2023-06-10T20:15:52;8.50;;;6.00;;
77326;SDS011;66399;52.322;20.980;2023-06-10T20:19:59;9.90;;;6.00;;
77326;SDS011;66399;52.322;20.980;2023-06-10T20:24:08;7.90;;;6.50;;
77326;SDS011;66399;52.322;20.980;2023-06-10T20:28:15;9.20;;;6.10;;
77326;SDS011;66399;52.322;20.980;2023-06-10T20:32:22;9.00;;;5.90;;
77326;SDS011;66399;52.322;20.980;2023-06-10T20:36:30;8.40;;;5.90;;
77326;SDS011;66399;52.322;20.980;2023-06-10T20:40:37;10.30;;;6.00;;
77326;SDS011;66399;52.322;20.980;2023-06-10T20:44:44;8.50;;;6.60;;
77326;SDS011;66399;52.322;20.980;2023-06-10T20:48:51;9.10;;;6.80;;
77326;SDS011;66399;52.322;20.980;2023-06-10T20:52:58;9.60;;;6.70;;
77326;SDS011;66399;52.322;20.980;2023-06-10T20:57:05;8.20;;;6.20;;
77326;SDS011;66399;52.322;20.980;2023-06-10T21:01:12;9.20;;;6.10;;
77326;SDS011;66399;52.322;20.980;2023-06-10T21:05:19;8.20;;;6.10;;
77326;SDS011;66399;52.322;20.980;2023-06-10T21:09:26;7.60;;;5.00;;
77326;SDS011;66399;52.322;20.980;2023-06-10T21:13:33;8.50;;;4.90;;
77326;SDS011;66399;52.322;20.980;2023-06-10T21:17:40;7.00;;;4.50;;
77326;SDS011;66399;52.322;20.980;2023-06-10T21:21:47;8.10;;;4.80;;
77326;SDS011;66399;52.322;20.980;2023-06-10T21:25:54;7.30;;;4.40;;
77326;SDS011;66399;52.322;20.980;2023-06-10T21:30:01;7.80;;;4.70;;
77326;SDS011;66399;52.322;20.980;2023-06-10T21:34:08;6.30;;;4.60;;
77326;SDS011;66399;52.322;20.980;2023-06-10T21:38:15;9.00;;;4.40;;
77326;SDS011;66399;52.322;20.980;2023-06-10T21:42:22;7.40;;;4.10;;
77326;SDS011;66399;52.322;20.980;2023-06-10T21:46:29;7.30;;;4.00;;
77326;SDS011;66399;52.322;20.980;2023-06-10T21:50:36;5.70;;;3.70;;
77326;SDS011;66399;52.322;20.980;2023-06-10T21:54:43;6.80;;;4.30;;
77326;SDS011;66399;52.322;20.980;2023-06-10T21:58:50;8.20;;;4.30;;
77326;SDS011;66399;52.322;20.980;2023-06-10T22:02:57;7.20;;;3.90;;
77326;SDS011;66399;52.322;20.980;2023-06-10T22:07:04;7.10;;;4.40;;
77326;SDS011;66399;52.322;20.980;2023-06-10T22:11:12;8.00;;;4.00;;
77326;SDS011;66399;52.322;20.980;2023-06-10T22:15:19;6.60;;;4.10;;
77326;SDS011;66399;52.322;20.980;2023-06-10T22:19:26;8.30;;;4.90;;
77326;SDS011;66399;52.322;20.980;2023-06-10T22:23:33;9.80;;;4.70;;
77326;SDS011;66399;52.322;20.980;2023-06-10T22:27:40;7.60;;;4.60;;
77326;SDS011;66399;52.322;20.980;2023-06-10T22:31:47;8.80;;;4.10;;
77326;SDS011;66399;52.322;20.980;2023-06-10T22:35:54;7.90;;;4.40;;
77326;SDS011;66399;52.322;20.980;2023-06-10T22:40:01;8.70;;;4.70;;
77326;SDS011;66399;52.322;20.980;2023-06-10T22:44:08;9.00;;;3.60;;
77326;SDS011;66399;52.322;20.980;2023-06-10T22:48:15;7.30;;;4.40;;
77326;SDS011;66399;52.322;20.980;2023-06-10T22:52:22;6.00;;;3.80;;
77326;SDS011;66399;52.322;20.980;2023-06-10T22:56:29;7.80;;;4.30;;
77326;SDS011;66399;52.322;20.980;2023-06-10T23:00:37;7.70;;;4.10;;
77326;SDS011;66399;52.322;20.980;2023-06-10T23:04:44;6.50;;;3.70;;
77326;SDS011;66399;52.322;20.980;2023-06-10T23:08:51;8.80;;;4.30;;
77326;SDS011;66399;52.322;20.980;2023-06-10T23:12:58;6.70;;;3.80;;
77326;SDS011;66399;52.322;20.980;2023-06-10T23:17:05;7.40;;;3.80;;
77326;SDS011;66399;52.322;20.980;2023-06-10T23:21:14;7.30;;;4.10;;
77326;SDS011;66399;52.322;20.980;2023-06-10T23:25:22;5.60;;;3.60;;
77326;SDS011;66399;52.322;20.980;2023-06-10T23:29:29;6.40;;;4.00;;
77326;SDS011;66399;52.322;20.980;2023-06-10T23:33:42;6.90;;;3.60;;
77326;SDS011;66399;52.322;20.980;2023-06-10T23:37:49;5.80;;;3.80;;
77326;SDS011;66399;52.322;20.980;2023-06-10T23:41:56;8.10;;;3.40;;
77326;SDS011;66399;52.322;20.980;2023-06-10T23:46:03;6.60;;;3.60;;
77326;SDS011;66399;52.322;20.980;2023-06-10T23:50:10;6.60;;;3.30;;
77326;SDS011;66399;52.322;20.980;2023-06-10T23:54:18;5.80;;;3.50;;
77326;SDS011;66399;52.322;20.980;2023-06-10T23:58:25;5.10;;;2.90;;
